createdAt,value
2016-10-16T00:00:53.657Z,0
2016-10-16T00:02:03.640Z,0
2016-10-16T00:03:13.644Z,0
2016-10-16T00:04:23.953Z,0
2016-10-16T00:05:33.609Z,0
2016-10-16T00:06:43.602Z,0
2016-10-16T00:07:53.577Z,0
2016-10-16T00:09:03.867Z,0
2016-10-16T00:10:13.852Z,0
2016-10-16T00:11:23.839Z,0
2016-10-16T00:12:33.527Z,0
2016-10-16T00:13:43.521Z,0
2016-10-16T00:14:52.902Z,0
2016-10-16T00:16:03.223Z,0
2016-10-16T00:17:13.202Z,0
2016-10-16T00:18:23.509Z,0
2016-10-16T00:19:33.798Z,0
2016-10-16T00:20:44.095Z,0
2016-10-16T00:21:53.773Z,0
2016-10-16T00:23:03.429Z,0
2016-10-16T00:24:13.742Z,0
2016-10-16T00:25:23.713Z,0
2016-10-16T00:26:33.704Z,0
2016-10-16T00:27:43.685Z,0
2016-10-16T00:28:53.681Z,0
2016-10-16T00:30:03.999Z,0
2016-10-16T00:31:14.304Z,0
2016-10-16T00:32:23.696Z,0
2016-10-16T00:33:33.685Z,0
2016-10-16T00:34:43.971Z,0
2016-10-16T00:35:53.936Z,0
2016-10-16T00:37:03.610Z,0
2016-10-16T00:38:13.880Z,0
2016-10-16T00:39:24.172Z,0
2016-10-16T00:40:34.178Z,0
2016-10-16T00:41:43.877Z,0
2016-10-16T00:42:53.536Z,0
2016-10-16T00:44:03.530Z,0
2016-10-16T00:45:13.535Z,0
2016-10-16T00:46:23.827Z,0
2016-10-16T00:47:33.808Z,0
2016-10-16T00:48:43.814Z,0
2016-10-16T00:49:54.117Z,0
2016-10-16T00:51:04.403Z,0
2016-10-16T00:52:14.384Z,0
2016-10-16T00:53:24.081Z,0
2016-10-16T00:54:34.368Z,0
2016-10-16T00:55:44.646Z,0
2016-10-16T00:56:54.664Z,0
2016-10-16T00:58:04.952Z,0
2016-10-16T00:59:14.929Z,0
2016-10-16T01:00:24.902Z,0
2016-10-16T01:01:35.188Z,0
2016-10-16T01:02:45.200Z,0
2016-10-16T01:03:55.197Z,0
2016-10-16T01:05:05.168Z,0
2016-10-16T01:06:14.855Z,0
2016-10-16T01:07:25.142Z,0
2016-10-16T01:08:35.438Z,0
2016-10-16T01:09:45.734Z,0
2016-10-16T01:10:56.022Z,0
2016-10-16T01:12:05.685Z,0
2016-10-16T01:13:15.675Z,0
2016-10-16T01:14:25.658Z,0
2016-10-16T01:15:35.633Z,0
2016-10-16T01:16:45.304Z,0
2016-10-16T01:17:55.582Z,0
2016-10-16T01:19:05.592Z,0
2016-10-16T01:20:15.571Z,0
2016-10-16T01:21:25.857Z,0
2016-10-16T01:22:36.140Z,0
2016-10-16T01:23:46.415Z,0
2016-10-16T01:24:56.720Z,0
2016-10-16T01:26:06.696Z,0
2016-10-16T01:27:16.683Z,0
2016-10-16T01:28:26.668Z,0
2016-10-16T01:29:36.948Z,0
2016-10-16T01:30:47.228Z,0
2016-10-16T01:31:57.565Z,0
2016-10-16T01:33:07.547Z,0
2016-10-16T01:34:17.823Z,0
2016-10-16T01:35:28.110Z,0
2016-10-16T01:36:38.402Z,0
2016-10-16T01:37:48.379Z,0
2016-10-16T01:38:58.371Z,0
2016-10-16T01:40:08.668Z,0
2016-10-16T01:41:18.329Z,0
2016-10-16T01:42:28.616Z,0
2016-10-16T01:43:38.587Z,0
2016-10-16T01:44:48.874Z,0
2016-10-16T01:45:59.184Z,0
2016-10-16T01:47:09.471Z,0
2016-10-16T01:48:19.453Z,0
2016-10-16T01:49:28.815Z,0
2016-10-16T01:50:39.118Z,0
2016-10-16T01:51:49.419Z,0
2016-10-16T01:52:59.710Z,0
2016-10-16T01:54:09.987Z,0
2016-10-16T01:55:19.970Z,0
2016-10-16T01:56:29.959Z,0
2016-10-16T01:57:40.266Z,0
2016-10-16T01:58:50.565Z,0
2016-10-16T02:00:00.856Z,0
2016-10-16T02:01:10.841Z,0
2016-10-16T02:02:21.136Z,0
2016-10-16T02:03:31.110Z,0
2016-10-16T02:04:41.105Z,0
2016-10-16T02:05:50.788Z,0
2016-10-16T02:07:01.089Z,0
2016-10-16T02:08:11.076Z,0
2016-10-16T02:09:20.763Z,0
2016-10-16T02:10:30.734Z,0
2016-10-16T02:11:40.413Z,0
2016-10-16T02:12:50.387Z,0
2016-10-16T02:14:00.374Z,0
2016-10-16T02:15:10.081Z,0
2016-10-16T02:16:20.063Z,0
2016-10-16T02:17:30.354Z,0
2016-10-16T02:18:40.316Z,0
2016-10-16T02:19:50.624Z,0
2016-10-16T02:20:59.989Z,0
2016-10-16T02:22:10.272Z,0
2016-10-16T02:23:20.582Z,0
2016-10-16T02:24:30.871Z,0
2016-10-16T02:25:40.531Z,0
2016-10-16T02:26:50.513Z,0
2016-10-16T02:28:00.234Z,0
2016-10-16T02:29:10.523Z,0
2016-10-16T02:30:20.502Z,0
2016-10-16T02:31:30.495Z,0
2016-10-16T02:32:40.475Z,0
2016-10-16T02:33:50.453Z,0
2016-10-16T02:35:00.743Z,0
2016-10-16T02:36:10.782Z,0
2016-10-16T02:37:20.459Z,0
2016-10-16T02:38:30.434Z,0
2016-10-16T02:39:40.413Z,0
2016-10-16T02:40:50.739Z,0
2016-10-16T02:42:01.020Z,0
2016-10-16T02:43:11.027Z,0
2016-10-16T02:44:21.316Z,0
2016-10-16T02:45:31.295Z,0
2016-10-16T02:46:41.608Z,0
2016-10-16T02:47:51.289Z,0
2016-10-16T02:49:01.262Z,0
2016-10-16T02:50:10.952Z,0
2016-10-16T02:51:21.248Z,0
2016-10-16T02:52:31.537Z,0
2016-10-16T02:53:41.529Z,0
2016-10-16T02:54:51.511Z,0
2016-10-16T02:56:01.832Z,0
2016-10-16T02:57:12.115Z,0
2016-10-16T02:58:22.405Z,0
2016-10-16T02:59:32.726Z,0
2016-10-16T03:00:43.014Z,0
2016-10-16T03:01:53.296Z,0
2016-10-16T03:33:15.864Z,0
2016-10-16T03:34:25.521Z,0
2016-10-16T03:35:35.507Z,0
2016-10-16T03:36:45.808Z,0
2016-10-16T03:37:56.084Z,0
2016-10-16T03:39:06.413Z,0
2016-10-16T03:40:16.696Z,0
2016-10-16T03:41:26.042Z,0
2016-10-16T03:42:36.029Z,0
2016-10-16T03:43:46.316Z,0
2016-10-16T03:44:56.590Z,0
2016-10-16T03:46:06.572Z,0
2016-10-16T03:47:16.559Z,0
2016-10-16T03:48:26.536Z,0
2016-10-16T03:49:36.513Z,0
2016-10-16T03:50:46.800Z,0
2016-10-16T03:51:56.467Z,0
2016-10-16T03:53:06.763Z,0
2016-10-16T03:54:16.746Z,0
2016-10-16T03:55:26.757Z,0
2016-10-16T03:56:36.755Z,0
2016-10-16T03:57:47.049Z,0
2016-10-16T03:58:57.027Z,0
2016-10-16T04:00:07.049Z,0
2016-10-16T04:01:17.035Z,0
2016-10-16T04:02:27.337Z,0
2016-10-16T04:03:37.334Z,0
2016-10-16T04:04:47.326Z,0
2016-10-16T04:05:57.628Z,0
2016-10-16T04:07:07.609Z,0
2016-10-16T04:08:17.596Z,0
2016-10-16T04:09:27.569Z,0
2016-10-16T04:10:37.547Z,0
2016-10-16T04:11:47.852Z,0
2016-10-16T04:12:58.148Z,0
2016-10-16T04:14:08.450Z,0
2016-10-16T04:15:18.441Z,0
2016-10-16T04:16:28.413Z,0
2016-10-16T04:17:38.395Z,0
2016-10-16T04:18:48.691Z,0
2016-10-16T04:19:58.984Z,0
2016-10-16T04:21:08.950Z,0
2016-10-16T04:22:19.227Z,0
2016-10-16T04:23:28.897Z,0
2016-10-16T04:24:39.200Z,0
2016-10-16T04:25:49.176Z,0
2016-10-16T04:26:59.467Z,0
2016-10-16T04:28:09.757Z,0
2016-10-16T04:29:20.068Z,0
2016-10-16T04:30:30.055Z,0
2016-10-16T04:31:40.345Z,0
2016-10-16T04:32:50.623Z,0
2016-10-16T04:34:00.302Z,0
2016-10-16T04:35:10.284Z,0
2016-10-16T04:36:20.601Z,0
2016-10-16T04:37:30.598Z,0
2016-10-16T04:38:40.884Z,0
2016-10-16T04:39:50.236Z,0
2016-10-16T04:41:00.534Z,0
2016-10-16T04:42:10.837Z,0
2016-10-16T04:43:21.134Z,0
2016-10-16T04:44:31.427Z,0
2016-10-16T04:45:41.728Z,0
2016-10-16T04:46:52.038Z,0
2016-10-16T04:48:02.028Z,0
2016-10-16T04:49:12.030Z,0
2016-10-16T04:50:21.693Z,0
2016-10-16T04:51:31.043Z,0
2016-10-16T04:52:41.069Z,0
2016-10-16T04:53:51.062Z,0
2016-10-16T04:55:01.347Z,0
2016-10-16T04:56:11.019Z,0
2016-10-16T04:57:20.687Z,0
2016-10-16T04:58:30.682Z,0
2016-10-16T04:59:40.917Z,0
2016-10-16T05:00:51.212Z,0
2016-10-16T05:02:01.198Z,0
2016-10-16T05:03:11.499Z,0
2016-10-16T05:04:21.473Z,0
2016-10-16T05:05:31.773Z,0
2016-10-16T05:06:41.456Z,0
2016-10-16T05:07:51.742Z,0
2016-10-16T05:09:01.738Z,0
2016-10-16T05:10:11.706Z,0
2016-10-16T05:11:21.681Z,0
2016-10-16T05:12:31.662Z,0
2016-10-16T05:13:41.653Z,0
2016-10-16T05:14:51.960Z,0
2016-10-16T05:16:01.955Z,0
2016-10-16T05:17:12.239Z,0
2016-10-16T05:18:22.522Z,5
2016-10-16T05:19:32.819Z,5
2016-10-16T05:20:42.812Z,5
2016-10-16T05:21:53.102Z,5
2016-10-16T05:23:03.388Z,5
2016-10-16T05:24:13.062Z,5
2016-10-16T05:25:23.037Z,5
2016-10-16T05:26:33.008Z,5
2016-10-16T05:27:43.305Z,5
2016-10-16T05:28:53.593Z,10
2016-10-16T05:30:03.593Z,10
2016-10-16T05:31:13.560Z,10
2016-10-16T05:32:23.542Z,10
2016-10-16T05:33:34.084Z,10
2016-10-16T05:34:44.051Z,10
2016-10-16T05:35:54.343Z,15
2016-10-16T05:37:04.654Z,15
2016-10-16T05:38:14.643Z,15
2016-10-16T05:39:24.932Z,15
2016-10-16T05:40:34.917Z,15
2016-10-16T05:41:45.206Z,15
2016-10-16T05:42:55.502Z,15
2016-10-16T05:44:05.809Z,20
2016-10-16T05:45:16.095Z,20
2016-10-16T05:46:26.087Z,20
2016-10-16T05:47:35.759Z,20
2016-10-16T05:48:46.055Z,20
2016-10-16T05:49:56.346Z,25
2016-10-16T05:51:06.324Z,25
2016-10-16T05:52:16.610Z,25
2016-10-16T05:53:26.901Z,25
2016-10-16T05:54:37.220Z,30
2016-10-16T05:55:47.514Z,30
2016-10-16T05:56:57.512Z,30
2016-10-16T05:58:07.183Z,30
2016-10-16T05:59:17.154Z,35
2016-10-16T06:00:27.151Z,35
2016-10-16T06:01:37.139Z,35
2016-10-16T06:02:46.810Z,40
2016-10-16T06:03:56.791Z,40
2016-10-16T06:05:06.463Z,40
2016-10-16T06:06:16.793Z,45
2016-10-16T06:07:26.491Z,45
2016-10-16T06:08:36.478Z,45
2016-10-16T06:09:46.164Z,45
2016-10-16T06:10:56.457Z,50
2016-10-16T06:12:06.737Z,50
2016-10-16T06:13:17.029Z,50
2016-10-16T06:14:27.339Z,55
2016-10-16T06:15:37.328Z,55
2016-10-16T06:16:47.623Z,50
2016-10-16T06:17:57.308Z,55
2016-10-16T06:19:07.288Z,55
2016-10-16T06:20:17.269Z,55
2016-10-16T06:21:27.244Z,55
2016-10-16T06:22:37.533Z,60
2016-10-16T06:23:47.519Z,55
2016-10-16T06:24:56.881Z,55
2016-10-16T06:26:07.172Z,60
2016-10-16T06:27:17.460Z,60
2016-10-16T06:28:27.438Z,60
2016-10-16T06:29:37.453Z,60
2016-10-16T06:30:47.420Z,65
2016-10-16T06:31:57.412Z,60
2016-10-16T06:33:07.715Z,60
2016-10-16T06:34:17.996Z,60
2016-10-16T06:35:28.272Z,65
2016-10-16T06:36:37.945Z,65
2016-10-16T06:37:48.225Z,65
2016-10-16T06:38:58.203Z,65
2016-10-16T06:40:08.498Z,65
2016-10-16T06:41:18.474Z,65
2016-10-16T06:42:28.764Z,65
2016-10-16T06:43:39.054Z,65
2016-10-16T06:44:49.026Z,65
2016-10-16T06:45:59.318Z,65
2016-10-16T06:47:09.604Z,65
2016-10-16T06:48:19.281Z,65
2016-10-16T06:49:29.284Z,65
2016-10-16T06:50:39.274Z,65
2016-10-16T06:51:49.282Z,65
2016-10-16T06:52:59.281Z,65
2016-10-16T06:54:09.586Z,65
2016-10-16T06:55:19.887Z,65
2016-10-16T06:56:29.893Z,70
2016-10-16T06:57:40.174Z,70
2016-10-16T06:58:50.486Z,70
2016-10-16T07:00:00.788Z,70
2016-10-16T07:01:11.084Z,70
2016-10-16T07:02:21.392Z,70
2016-10-16T07:03:31.363Z,70
2016-10-16T07:04:41.375Z,70
2016-10-16T07:05:51.689Z,70
2016-10-16T07:07:01.999Z,75
2016-10-16T07:08:12.300Z,75
2016-10-16T07:09:22.282Z,75
2016-10-16T07:10:32.275Z,75
2016-10-16T07:11:42.579Z,80
2016-10-16T07:12:52.877Z,80
2016-10-16T07:14:03.173Z,85
2016-10-16T07:15:13.475Z,90
2016-10-16T07:16:23.455Z,100
2016-10-16T07:17:33.449Z,115
2016-10-16T07:18:43.760Z,125
2016-10-16T07:19:54.046Z,130
2016-10-16T07:21:04.029Z,130
2016-10-16T07:22:14.034Z,135
2016-10-16T07:23:24.331Z,140
2016-10-16T07:24:34.618Z,140
2016-10-16T07:25:44.596Z,145
2016-10-16T07:26:54.887Z,145
2016-10-16T07:28:05.183Z,145
2016-10-16T07:29:15.186Z,145
2016-10-16T07:30:25.176Z,145
2016-10-16T07:31:35.168Z,125
2016-10-16T07:32:45.151Z,125
2016-10-16T07:33:55.136Z,125
2016-10-16T07:35:05.435Z,155
2016-10-16T07:36:15.428Z,170
2016-10-16T07:37:25.711Z,175
2016-10-16T07:38:35.736Z,180
2016-10-16T07:39:46.057Z,185
2016-10-16T07:40:56.037Z,190
2016-10-16T07:42:06.338Z,190
2016-10-16T07:43:16.326Z,190
2016-10-16T07:44:26.352Z,195
2016-10-16T07:45:36.657Z,200
2016-10-16T07:46:46.960Z,205
2016-10-16T07:47:56.627Z,210
2016-10-16T07:49:06.604Z,215
2016-10-16T07:50:16.925Z,225
2016-10-16T07:51:26.921Z,200
2016-10-16T07:52:36.924Z,210
2016-10-16T07:53:47.235Z,200
2016-10-16T07:54:57.531Z,190
2016-10-16T07:56:07.824Z,220
2016-10-16T07:57:17.800Z,180
2016-10-16T07:58:27.796Z,185
2016-10-16T07:59:38.144Z,205
2016-10-16T08:00:48.446Z,210
2016-10-16T08:01:58.134Z,205
2016-10-16T08:03:08.668Z,225
2016-10-16T08:04:18.947Z,215
2016-10-16T08:05:28.944Z,220
2016-10-16T08:06:38.626Z,225
2016-10-16T08:07:48.921Z,200
2016-10-16T08:08:58.924Z,195
2016-10-16T08:10:09.220Z,195
2016-10-16T08:11:19.508Z,220
2016-10-16T08:12:29.509Z,230
2016-10-16T08:13:39.827Z,230
2016-10-16T08:14:49.509Z,235
2016-10-16T08:15:59.489Z,235
2016-10-16T08:17:09.836Z,235
2016-10-16T08:18:20.129Z,235
2016-10-16T08:19:30.435Z,230
2016-10-16T08:20:40.727Z,215
2016-10-16T08:21:50.707Z,230
2016-10-16T08:23:00.390Z,220
2016-10-16T08:24:10.406Z,195
2016-10-16T08:25:20.713Z,190
2016-10-16T08:26:31.005Z,165
2016-10-16T08:27:41.300Z,175
2016-10-16T08:28:51.298Z,165
2016-10-16T08:30:01.611Z,155
2016-10-16T08:31:11.607Z,155
2016-10-16T08:32:21.914Z,155
2016-10-16T08:33:32.225Z,165
2016-10-16T08:34:42.526Z,210
2016-10-16T08:35:52.508Z,220
2016-10-16T08:37:02.499Z,235
2016-10-16T08:38:12.182Z,205
2016-10-16T08:39:22.194Z,175
2016-10-16T08:40:32.166Z,170
2016-10-16T08:41:42.158Z,175
2016-10-16T08:42:51.865Z,175
2016-10-16T08:44:01.862Z,170
2016-10-16T08:45:12.157Z,150
2016-10-16T08:46:21.839Z,135
2016-10-16T08:47:31.846Z,130
2016-10-16T08:48:41.872Z,130
2016-10-16T08:49:52.166Z,130
2016-10-16T08:51:02.461Z,125
2016-10-16T08:52:12.458Z,130
2016-10-16T08:53:22.444Z,130
2016-10-16T08:54:32.451Z,135
2016-10-16T08:55:42.753Z,150
2016-10-16T08:56:53.065Z,175
2016-10-16T08:58:03.382Z,155
2016-10-16T08:59:13.370Z,145
2016-10-16T09:00:23.354Z,155
2016-10-16T09:01:32.739Z,165
2016-10-16T09:02:42.736Z,165
2016-10-16T09:03:53.075Z,170
2016-10-16T09:05:02.759Z,165
2016-10-16T09:06:13.046Z,165
2016-10-16T09:07:23.337Z,165
2016-10-16T09:08:33.335Z,170
2016-10-16T09:09:43.319Z,170
2016-10-16T09:10:53.312Z,175
2016-10-16T09:12:03.622Z,170
2016-10-16T09:13:13.609Z,165
2016-10-16T09:14:23.601Z,155
2016-10-16T09:15:33.923Z,155
2016-10-16T09:16:44.234Z,155
2016-10-16T09:17:54.246Z,150
2016-10-16T09:19:04.549Z,145
2016-10-16T09:20:14.875Z,145
2016-10-16T09:21:24.866Z,150
2016-10-16T09:22:34.868Z,145
2016-10-16T09:23:44.853Z,140
2016-10-16T09:24:54.841Z,140
2016-10-16T09:26:05.134Z,135
2016-10-16T09:27:15.146Z,135
2016-10-16T09:28:25.136Z,140
2016-10-16T09:29:35.438Z,150
2016-10-16T09:30:45.420Z,155
2016-10-16T09:31:55.732Z,155
2016-10-16T09:33:05.725Z,145
2016-10-16T09:34:15.697Z,145
2016-10-16T09:35:25.982Z,140
2016-10-16T09:36:35.969Z,140
2016-10-16T09:37:45.963Z,210
2016-10-16T09:38:55.963Z,185
2016-10-16T09:40:06.269Z,160
2016-10-16T09:41:15.657Z,175
2016-10-16T09:42:25.967Z,190
2016-10-16T09:43:36.269Z,150
2016-10-16T09:44:46.251Z,155
2016-10-16T09:45:56.228Z,150
2016-10-16T09:47:06.210Z,150
2016-10-16T09:48:16.205Z,150
2016-10-16T09:49:26.504Z,145
2016-10-16T09:50:35.891Z,145
2016-10-16T09:51:46.221Z,140
2016-10-16T09:52:55.913Z,140
2016-10-16T09:54:06.219Z,130
2016-10-16T09:55:16.210Z,130
2016-10-16T09:56:26.188Z,130
2016-10-16T09:57:36.210Z,135
2016-10-16T09:58:46.222Z,140
2016-10-16T09:59:56.229Z,145
2016-10-16T10:01:06.227Z,185
2016-10-16T10:02:16.207Z,170
2016-10-16T10:03:25.897Z,155
2016-10-16T10:04:36.220Z,190
2016-10-16T10:05:45.897Z,205
2016-10-16T10:06:56.213Z,180
2016-10-16T10:08:06.548Z,200
2016-10-16T10:09:16.553Z,230
2016-10-16T10:10:26.865Z,240
2016-10-16T10:11:36.561Z,245
2016-10-16T10:12:46.562Z,245
2016-10-16T10:13:56.863Z,245
2016-10-16T10:15:06.871Z,245
2016-10-16T10:16:17.157Z,240
2016-10-16T10:17:27.454Z,240
2016-10-16T10:18:37.450Z,240
2016-10-16T10:19:47.761Z,240
2016-10-16T10:20:57.133Z,240
2016-10-16T10:22:06.509Z,240
2016-10-16T10:23:16.258Z,240
2016-10-16T10:24:26.608Z,235
2016-10-16T10:25:36.296Z,235
2016-10-16T10:26:46.616Z,235
2016-10-16T10:27:56.918Z,235
2016-10-16T10:29:06.920Z,240
2016-10-16T10:30:16.907Z,240
2016-10-16T10:31:26.898Z,250
2016-10-16T10:32:37.195Z,235
2016-10-16T10:33:47.200Z,230
2016-10-16T10:34:57.192Z,240
2016-10-16T10:36:07.496Z,230
2016-10-16T10:37:17.791Z,240
2016-10-16T10:38:28.118Z,220
2016-10-16T10:39:38.459Z,240
2016-10-16T10:40:48.451Z,150
2016-10-16T10:41:58.769Z,255
2016-10-16T10:43:09.065Z,250
2016-10-16T10:44:19.057Z,255
2016-10-16T10:45:29.064Z,245
2016-10-16T10:46:38.755Z,245
2016-10-16T10:47:48.120Z,245
2016-10-16T10:48:57.818Z,240
2016-10-16T10:50:08.112Z,240
2016-10-16T10:51:18.417Z,215
2016-10-16T10:52:28.088Z,225
2016-10-16T10:53:38.400Z,200
2016-10-16T10:54:48.692Z,220
2016-10-16T10:55:58.988Z,210
2016-10-16T10:57:09.270Z,200
2016-10-16T10:58:18.628Z,195
2016-10-16T10:59:28.328Z,225
2016-10-16T11:00:38.327Z,230
2016-10-16T11:01:48.007Z,235
2016-10-16T11:02:58.327Z,245
2016-10-16T11:04:08.624Z,250
2016-10-16T11:05:18.619Z,255
2016-10-16T11:06:28.622Z,260
2016-10-16T11:07:38.926Z,265
2016-10-16T11:08:48.909Z,260
2016-10-16T11:09:59.239Z,260
2016-10-16T11:11:09.226Z,270
2016-10-16T11:12:19.526Z,280
2016-10-16T11:13:29.835Z,285
2016-10-16T11:14:40.155Z,280
2016-10-16T11:15:50.138Z,270
2016-10-16T11:16:59.814Z,265
2016-10-16T11:18:10.115Z,255
2016-10-16T11:19:20.420Z,260
2016-10-16T11:20:30.725Z,270
2016-10-16T11:21:41.041Z,270
2016-10-16T11:22:51.018Z,275
2016-10-16T11:24:01.029Z,270
2016-10-16T11:25:11.056Z,275
2016-10-16T11:26:21.363Z,275
2016-10-16T11:27:31.660Z,260
2016-10-16T11:28:41.991Z,265
2016-10-16T11:29:52.293Z,265
2016-10-16T11:31:02.586Z,265
2016-10-16T11:32:12.593Z,255
2016-10-16T11:33:22.893Z,285
2016-10-16T11:34:33.174Z,290
2016-10-16T11:35:43.475Z,300
2016-10-16T11:36:53.803Z,310
2016-10-16T11:38:04.117Z,245
2016-10-16T11:39:14.446Z,230
2016-10-16T11:40:24.453Z,190
2016-10-16T11:41:34.760Z,175
2016-10-16T11:42:45.067Z,170
2016-10-16T11:43:55.373Z,170
2016-10-16T11:45:05.372Z,175
2016-10-16T11:46:15.668Z,180
2016-10-16T11:47:25.687Z,180
2016-10-16T11:48:36.005Z,185
2016-10-16T11:49:46.306Z,185
2016-10-16T11:50:56.004Z,175
2016-10-16T11:52:06.300Z,175
2016-10-16T11:53:15.971Z,165
2016-10-16T11:54:26.010Z,155
2016-10-16T11:55:36.035Z,150
2016-10-16T11:56:46.349Z,145
2016-10-16T11:57:56.343Z,150
2016-10-16T11:59:06.648Z,155
2016-10-16T12:00:16.987Z,160
2016-10-16T12:01:27.315Z,160
2016-10-16T12:02:37.652Z,165
2016-10-16T12:03:47.339Z,170
2016-10-16T12:04:57.338Z,175
2016-10-16T12:06:07.641Z,180
2016-10-16T12:07:18.165Z,205
2016-10-16T12:08:28.534Z,170
2016-10-16T12:09:38.521Z,170
2016-10-16T12:10:48.218Z,160
2016-10-16T12:11:58.231Z,155
2016-10-16T12:13:08.542Z,155
2016-10-16T12:14:18.546Z,160
2016-10-16T12:15:28.539Z,160
2016-10-16T12:16:38.510Z,155
2016-10-16T12:17:48.488Z,150
2016-10-16T12:18:58.481Z,155
2016-10-16T12:20:08.481Z,160
2016-10-16T12:21:18.473Z,150
2016-10-16T12:22:28.171Z,140
2016-10-16T12:23:38.172Z,125
2016-10-16T12:24:47.867Z,120
2016-10-16T12:25:57.860Z,120
2016-10-16T12:27:08.162Z,125
2016-10-16T12:28:18.472Z,130
2016-10-16T12:29:28.769Z,140
2016-10-16T12:30:38.747Z,145
2016-10-16T12:31:48.743Z,150
2016-10-16T12:32:58.734Z,150
2016-10-16T12:34:09.036Z,155
2016-10-16T12:35:19.337Z,155
2016-10-16T12:36:29.639Z,155
2016-10-16T12:37:39.936Z,155
2016-10-16T12:38:49.657Z,155
2016-10-16T12:39:59.649Z,145
2016-10-16T12:41:09.640Z,145
2016-10-16T12:42:19.959Z,155
2016-10-16T12:43:30.240Z,160
2016-10-16T12:44:40.566Z,165
2016-10-16T12:45:50.266Z,165
2016-10-16T12:47:00.255Z,165
2016-10-16T12:48:10.551Z,160
2016-10-16T12:49:20.269Z,160
2016-10-16T12:50:30.559Z,170
2016-10-16T12:51:40.876Z,165
2016-10-16T12:52:50.882Z,170
2016-10-16T12:54:00.603Z,170
2016-10-16T12:55:10.911Z,160
2016-10-16T12:56:21.227Z,160
2016-10-16T12:57:31.211Z,160
2016-10-16T12:58:40.880Z,165
2016-10-16T12:59:51.173Z,160
2016-10-16T13:01:01.467Z,160
2016-10-16T13:02:11.761Z,160
2016-10-16T13:03:22.062Z,155
2016-10-16T13:04:32.373Z,155
2016-10-16T13:05:42.679Z,165
2016-10-16T13:06:52.987Z,150
2016-10-16T13:08:02.713Z,155
2016-10-16T13:09:13.153Z,145
2016-10-16T13:10:23.530Z,145
2016-10-16T13:11:33.553Z,150
2016-10-16T13:12:43.890Z,150
2016-10-16T13:13:53.266Z,150
2016-10-16T13:15:02.971Z,155
2016-10-16T13:16:13.299Z,155
2016-10-16T13:17:23.616Z,155
2016-10-16T13:18:33.922Z,155
2016-10-16T13:19:44.244Z,150
2016-10-16T13:20:54.571Z,150
2016-10-16T13:22:04.567Z,150
2016-10-16T13:23:14.885Z,150
2016-10-16T13:24:25.195Z,150
2016-10-16T13:25:35.557Z,150
2016-10-16T13:26:45.880Z,150
2016-10-16T13:27:56.214Z,150
2016-10-16T13:29:06.547Z,150
2016-10-16T13:30:16.570Z,150
2016-10-16T13:31:26.920Z,150
2016-10-16T13:32:36.917Z,145
2016-10-16T13:33:47.233Z,145
2016-10-16T13:34:56.931Z,150
2016-10-16T13:36:07.268Z,145
2016-10-16T13:37:17.586Z,145
2016-10-16T13:38:27.605Z,140
2016-10-16T13:39:37.934Z,140
2016-10-16T13:40:47.611Z,135
2016-10-16T13:41:57.901Z,135
2016-10-16T13:43:08.237Z,130
2016-10-16T13:44:18.235Z,130
2016-10-16T13:45:28.563Z,130
2016-10-16T13:46:38.886Z,125
2016-10-16T13:47:48.878Z,125
2016-10-16T13:48:59.186Z,125
2016-10-16T13:50:09.520Z,125
2016-10-16T13:51:19.535Z,120
2016-10-16T13:52:29.850Z,120
2016-10-16T13:53:39.848Z,115
2016-10-16T13:54:49.544Z,115
2016-10-16T13:55:59.242Z,110
2016-10-16T13:57:09.572Z,105
2016-10-16T13:58:20.136Z,100
2016-10-16T13:59:30.131Z,100
2016-10-16T14:00:39.852Z,95
2016-10-16T14:01:50.147Z,95
2016-10-16T14:03:00.159Z,90
2016-10-16T14:04:10.160Z,90
2016-10-16T14:05:20.471Z,85
2016-10-16T14:06:30.778Z,85
2016-10-16T14:07:41.068Z,85
2016-10-16T14:08:51.365Z,85
2016-10-16T14:10:01.381Z,80
2016-10-16T14:11:11.366Z,80
2016-10-16T14:12:21.675Z,80
2016-10-16T14:13:31.993Z,80
2016-10-16T14:14:41.988Z,80
2016-10-16T14:15:52.294Z,80
2016-10-16T14:17:02.611Z,80
2016-10-16T14:18:12.306Z,80
2016-10-16T14:19:22.309Z,80
2016-10-16T14:20:32.332Z,75
2016-10-16T14:21:42.027Z,75
2016-10-16T14:22:52.313Z,75
2016-10-16T14:24:02.610Z,70
2016-10-16T14:25:12.311Z,70
2016-10-16T14:26:22.617Z,65
2016-10-16T14:27:32.919Z,65
2016-10-16T14:28:43.231Z,60
2016-10-16T14:29:53.550Z,60
2016-10-16T14:31:03.893Z,55
2016-10-16T14:32:13.585Z,55
2016-10-16T14:33:23.886Z,50
2016-10-16T14:34:33.580Z,50
2016-10-16T14:35:42.946Z,50
2016-10-16T14:36:53.259Z,50
2016-10-16T14:38:03.260Z,45
2016-10-16T14:39:13.578Z,45
2016-10-16T14:40:23.290Z,45
2016-10-16T14:41:33.638Z,45
2016-10-16T14:42:43.990Z,45
2016-10-16T14:43:53.977Z,45
2016-10-16T14:45:04.290Z,45
2016-10-16T14:46:14.597Z,45
2016-10-16T14:47:24.956Z,40
2016-10-16T14:48:34.630Z,40
2016-10-16T14:49:44.939Z,40
2016-10-16T14:50:55.244Z,40
2016-10-16T14:52:05.573Z,40
2016-10-16T14:53:15.569Z,40
2016-10-16T14:54:25.852Z,40
2016-10-16T14:55:36.159Z,40
2016-10-16T14:56:46.157Z,40
2016-10-16T14:57:56.155Z,40
2016-10-16T14:59:06.505Z,40
2016-10-16T15:00:16.503Z,40
2016-10-16T15:01:26.864Z,40
2016-10-16T15:02:37.227Z,45
2016-10-16T15:03:47.552Z,60
2016-10-16T15:04:57.257Z,65
2016-10-16T15:06:07.619Z,65
2016-10-16T15:07:17.960Z,60
2016-10-16T15:08:27.985Z,60
2016-10-16T15:09:37.999Z,60
2016-10-16T15:10:48.323Z,60
2016-10-16T15:11:58.661Z,60
2016-10-16T15:13:08.981Z,60
2016-10-16T15:14:19.308Z,65
2016-10-16T15:15:29.630Z,60
2016-10-16T15:16:39.340Z,55
2016-10-16T15:17:49.676Z,55
2016-10-16T15:18:59.695Z,55
2016-10-16T15:20:09.816Z,55
2016-10-16T15:21:19.863Z,55
2016-10-16T15:22:30.434Z,55
2016-10-16T15:23:40.471Z,50
2016-10-16T15:24:50.835Z,50
2016-10-16T15:26:00.867Z,45
2016-10-16T15:27:11.205Z,45
2016-10-16T15:28:21.619Z,40
2016-10-16T15:29:31.667Z,35
2016-10-16T15:30:41.696Z,40
2016-10-16T15:31:51.706Z,35
2016-10-16T15:33:01.735Z,35
2016-10-16T15:34:12.078Z,30
2016-10-16T15:35:22.453Z,30
2016-10-16T15:36:32.771Z,30
2016-10-16T15:37:43.121Z,25
2016-10-16T15:38:53.459Z,25
2016-10-16T15:40:03.774Z,25
2016-10-16T15:41:14.117Z,20
2016-10-16T15:42:24.669Z,20
2016-10-16T15:43:35.009Z,20
2016-10-16T15:44:45.328Z,20
2016-10-16T15:45:55.630Z,15
2016-10-16T15:47:05.633Z,15
2016-10-16T15:48:15.948Z,15
2016-10-16T15:49:25.929Z,15
2016-10-16T15:50:35.305Z,10
2016-10-16T15:51:45.302Z,10
2016-10-16T15:52:55.337Z,10
2016-10-16T15:54:05.021Z,10
2016-10-16T15:55:15.323Z,10
2016-10-16T15:56:25.343Z,5
2016-10-16T15:57:35.667Z,5
2016-10-16T15:58:45.682Z,5
2016-10-16T15:59:55.703Z,5
2016-10-16T16:01:06.023Z,5
2016-10-16T16:02:16.334Z,5
2016-10-16T16:03:26.640Z,5
2016-10-16T16:04:36.963Z,5
2016-10-16T16:05:47.274Z,0
2016-10-16T16:06:57.291Z,0
2016-10-16T16:08:07.284Z,0
2016-10-16T16:09:17.581Z,0
2016-10-16T16:10:27.887Z,0
2016-10-16T16:11:37.888Z,0
2016-10-16T16:12:48.201Z,0
2016-10-16T16:13:58.511Z,0
2016-10-16T16:15:08.504Z,0
2016-10-16T16:16:18.500Z,0
2016-10-16T16:17:28.514Z,0
2016-10-16T16:18:38.860Z,0
2016-10-16T16:19:48.867Z,0
2016-10-16T16:20:59.164Z,0
2016-10-16T16:22:09.521Z,0
2016-10-16T16:23:19.823Z,0
2016-10-16T16:24:30.136Z,0
2016-10-16T16:25:40.457Z,0
2016-10-16T16:26:50.437Z,0
2016-10-16T16:28:00.758Z,0
2016-10-16T16:29:11.061Z,0
2016-10-16T16:30:21.065Z,0
2016-10-16T16:31:31.061Z,0
2016-10-16T16:32:41.370Z,0
2016-10-16T16:33:51.694Z,0
2016-10-16T16:35:01.986Z,0
2016-10-16T16:36:12.306Z,0
2016-10-16T16:37:22.635Z,0
2016-10-16T16:38:32.949Z,0
2016-10-16T16:39:43.293Z,0
2016-10-16T16:40:53.539Z,0
2016-10-16T16:42:03.888Z,0
2016-10-16T16:43:14.205Z,0
2016-10-16T16:44:24.508Z,0
2016-10-16T16:45:34.823Z,0
2016-10-16T16:46:44.817Z,0
2016-10-16T16:47:55.149Z,0
2016-10-16T16:49:05.489Z,0
2016-10-16T16:50:15.857Z,0
2016-10-16T16:51:25.891Z,0
2016-10-16T16:52:35.886Z,0
2016-10-16T16:53:46.228Z,0
2016-10-16T16:54:56.534Z,0
2016-10-16T16:56:06.562Z,0
2016-10-16T16:57:16.881Z,0
2016-10-16T16:58:27.192Z,0
2016-10-16T16:59:39.888Z,0
2016-10-16T17:00:52.823Z,0
2016-10-16T17:02:03.307Z,0
2016-10-16T17:03:13.628Z,0
2016-10-16T17:04:24.158Z,0
2016-10-16T17:05:34.798Z,0
2016-10-16T17:06:45.039Z,0
2016-10-16T17:07:55.064Z,0
2016-10-16T17:09:07.413Z,0